Time;durP1;ratioP1;P1;durP2;ratioP2;P2;SDS_P1;SDS_P2;PMS_P1;PMS_P2;Temp;Humidity;BMP_temperature;BMP_pressure;BME280_temperature;BME280_humidity;BME280_pressure;Samples;Min_cycle;Max_cycle;Signal;HPM_P1;HPM_P2
2023/05/18 00:01:02;;;;;;;0.20;0.20;;;;;;;20.92;44.35;102312.06;5114831;27;20099;-44
2023/05/18 00:03:28;;;;;;;0.20;0.20;;;;;;;20.93;44.64;102322.03;5114976;27;20047;-43
2023/05/18 00:06:05;;;;;;;0.20;0.20;;;;;;;20.93;44.34;102316.47;5113091;28;20146;-43
2023/05/18 00:08:33;;;;;;;0.20;0.20;;;;;;;20.93;44.54;102322.03;5115108;27;20051;-44
2023/05/18 00:11:00;;;;;;;0.20;0.20;;;;;;;20.92;44.52;102312.88;5114176;27;20403;-44
2023/05/18 00:13:25;;;;;;;0.20;0.20;;;;;;;20.93;44.56;102311.78;5113197;28;20356;-43
2023/05/18 00:15:51;;;;;;;0.20;0.20;;;;;;;20.93;44.30;102313.72;5114878;28;20043;-43
2023/05/18 00:18:17;;;;;;;0.20;0.20;;;;;;;20.91;44.26;102308.44;5115080;28;20053;-46
2023/05/18 00:20:43;;;;;;;0.20;0.20;;;;;;;20.93;44.60;102314.56;5114891;27;20043;-42
2023/05/18 00:23:15;;;;;;;0.20;0.20;;;;;;;20.92;44.55;102320.34;5114947;27;20059;-43
2023/05/18 00:25:41;;;;;;;0.20;0.20;;;;;;;20.93;44.46;102319.25;5114898;27;20047;-42
2023/05/18 00:28:07;;;;;;;0.20;0.20;;;;;;;20.92;44.26;102323.97;5113615;27;20047;-43
2023/05/18 00:30:32;;;;;;;0.20;0.20;;;;;;;20.93;44.31;102316.47;5118365;27;20569;-44
2023/05/18 00:32:58;;;;;;;0.20;0.20;;;;;;;20.93;44.17;102324.78;5123200;27;20045;-43
2023/05/18 00:35:23;;;;;;;0.20;0.20;;;;;;;20.92;44.47;102315.66;5139047;27;20404;-44
2023/05/18 00:37:49;;;;;;;0.20;0.20;;;;;;;20.94;44.47;102316.25;5138025;27;20081;-43
2023/05/18 00:40:15;;;;;;;0.20;0.20;;;;;;;20.94;44.28;102315.38;5138807;27;20630;-43
2023/05/18 00:42:41;;;;;;;0.20;0.20;;;;;;;20.93;44.30;102317.31;5138723;27;20142;-42
2023/05/18 00:45:07;;;;;;;0.20;0.20;;;;;;;20.93;44.38;102314.56;5154885;27;20047;-42
2023/05/18 00:47:32;;;;;;;0.20;0.20;;;;;;;20.94;44.39;102316.25;5159400;27;20047;-46
2023/05/18 00:49:58;;;;;;;0.20;0.20;;;;;;;20.94;44.37;102313.47;5133425;27;20043;-43
2023/05/18 00:52:24;;;;;;;0.20;0.20;;;;;;;20.94;44.36;102319.00;5118034;28;20062;-44
2023/05/18 00:54:50;;;;;;;0.20;0.20;;;;;;;20.93;44.25;102319.25;5118310;27;20146;-45
2023/05/18 00:57:17;;;;;;;0.20;0.20;;;;;;;20.93;44.00;102319.25;5116912;28;20490;-43
2023/05/18 00:59:45;;;;;;;0.20;0.20;;;;;;;20.93;44.48;102316.47;5117999;27;20039;-44
2023/05/18 01:02:13;;;;;;;0.20;0.20;;;;;;;20.93;44.33;102320.09;5117066;28;20082;-42
2023/05/18 01:04:40;;;;;;;0.20;0.20;;;;;;;20.93;44.41;102316.47;5118149;27;20062;-43
2023/05/18 01:07:06;;;;;;;0.20;0.20;;;;;;;20.94;44.32;102312.63;5117585;27;20035;-43
2023/05/18 01:09:33;;;;;;;0.20;0.20;;;;;;;20.94;44.33;102316.25;5117701;27;20040;-42
2023/05/18 01:12:05;;;;;;;0.20;0.20;;;;;;;20.93;44.26;102317.31;5118086;27;20082;-44
2023/05/18 01:14:54;;;;;;;0.20;0.20;;;;;;;20.97;44.33;102317.63;5117838;27;20054;-43
2023/05/18 01:17:28;;;;;;;0.20;0.20;;;;;;;20.95;44.40;102311.53;5116220;28;20058;-43
2023/05/18 01:22:48;;;;;;;0.20;0.20;;;;;;;20.99;44.32;102315.47;5174916;27;20630;-40
2023/05/18 01:25:22;;;;;;;0.20;0.20;;;;;;;20.98;44.17;102319.31;5135125;27;20047;-40
2023/05/18 01:27:50;;;;;;;0.20;0.20;;;;;;;20.97;44.24;102317.63;5154083;27;20078;-41
2023/05/18 01:30:16;;;;;;;0.20;0.20;;;;;;;20.96;44.19;102311.28;5134458;27;20497;-41
2023/05/18 01:32:45;;;;;;;0.20;0.20;;;;;;;20.95;44.16;102306.84;5121325;27;20073;-40
2023/05/18 01:35:11;;;;;;;0.20;0.20;;;;;;;20.97;44.13;102309.34;5114752;27;20447;-41
2023/05/18 01:37:37;;;;;;;0.20;0.20;;;;;;;20.98;44.24;102299.91;5132858;27;20047;-42
2023/05/18 01:40:04;;;;;;;0.20;0.20;;;;;;;20.95;44.27;102308.78;5132400;27;20046;-42
2023/05/18 01:42:33;;;;;;;0.20;0.20;;;;;;;20.94;44.29;102307.94;5133167;27;20043;-40
2023/05/18 01:45:05;;;;;;;0.20;0.20;;;;;;;20.94;44.09;102305.16;5148126;27;20503;-40
2023/05/18 01:47:32;;;;;;;0.20;0.20;;;;;;;20.95;44.40;102306.00;5153397;27;20039;-41
2023/05/18 01:50:03;;;;;;;0.20;0.20;;;;;;;20.97;44.17;102306.56;5128051;27;20086;-42
2023/05/18 01:52:32;;;;;;;0.20;0.20;;;;;;;20.96;44.19;102305.72;5111009;28;20184;-43
2023/05/18 01:55:02;;;;;;;0.20;0.20;;;;;;;20.96;44.16;102310.44;5112264;28;20051;-40
2023/05/18 01:57:30;;;;;;;0.20;0.20;;;;;;;20.98;44.16;102311.00;5112018;28;20035;-40
2023/05/18 01:59:58;;;;;;;0.20;0.20;;;;;;;20.98;44.48;102305.47;5098630;27;20097;-40
2023/05/18 02:02:25;;;;;;;;;;;;;;;20.96;44.24;102305.72;5133416;27;20046;-40
2023/05/18 02:04:51;;;;;;;0.20;0.20;;;;;;;20.97;44.26;102301.03;5132850;27;19972;-40
2023/05/18 02:07:16;;;;;;;0.20;0.20;;;;;;;20.97;44.14;102303.78;5113556;27;20293;-41
2023/05/18 02:09:43;;;;;;;0.20;0.20;;;;;;;21.01;44.15;102303.00;5132400;27;20043;-41
2023/05/18 02:12:09;;;;;;;0.20;0.20;;;;;;;20.98;44.22;102306.31;5132441;27;20045;-41
2023/05/18 02:14:35;;;;;;;0.20;0.20;;;;;;;20.98;43.87;102309.09;5113622;27;20046;-40
2023/05/18 02:17:00;;;;;;;0.20;0.20;;;;;;;20.96;44.36;102304.91;5132009;27;20400;-44
2023/05/18 02:19:26;;;;;;;0.20;0.20;;;;;;;20.95;44.16;102312.38;5131785;27;20149;-41
2023/05/18 02:21:52;;;;;;;0.20;0.20;;;;;;;20.96;44.39;102308.50;5132044;27;20070;-39
2023/05/18 02:24:18;;;;;;;0.20;0.20;;;;;;;20.98;44.17;102314.63;5132670;27;20043;-40
2023/05/18 02:26:43;;;;;;;0.20;0.20;;;;;;;20.97;44.24;102312.09;5131921;27;20047;-40
2023/05/18 02:29:10;;;;;;;0.20;0.20;;;;;;;20.97;44.20;102315.72;5132039;27;20551;-40
2023/05/18 02:31:36;;;;;;;0.20;0.20;;;;;;;20.98;44.22;102311.88;5130626;27;20140;-41
2023/05/18 02:34:03;;;;;;;0.20;0.20;;;;;;;20.96;44.36;102304.91;5118005;27;20047;-40
2023/05/18 02:36:35;;;;;;;0.20;0.20;;;;;;;20.96;44.06;102310.44;5118214;28;20096;-41
2023/05/18 02:39:03;;;;;;;0.20;0.20;;;;;;;20.99;44.09;102313.53;5100632;28;20043;-40
2023/05/18 02:41:29;;;;;;;0.20;0.20;;;;;;;20.99;44.13;102315.47;5099415;28;20054;-40
2023/05/18 02:43:55;;;;;;;0.20;0.20;;;;;;;20.98;44.11;102311.00;5105623;27;20054;-40
2023/05/18 02:46:21;;;;;;;0.20;0.20;;;;;;;20.97;44.22;102314.88;5136224;27;20042;-40
2023/05/18 02:48:46;;;;;;;0.20;0.20;;;;;;;20.99;43.97;102318.22;5118151;28;20434;-41
2023/05/18 02:51:12;;;;;;;0.20;0.20;;;;;;;21.01;43.99;102313.25;5117393;28;20043;-40
2023/05/18 02:53:38;;;;;;;0.20;0.20;;;;;;;21.00;43.89;102317.13;5117456;27;20385;-43
2023/05/18 02:56:07;;;;;;;0.20;0.20;;;;;;;20.98;44.10;102314.63;5116786;28;20047;-41
2023/05/18 02:58:33;;;;;;;0.20;0.20;;;;;;;20.99;44.12;102312.69;5117485;28;20039;-40
2023/05/18 03:00:59;;;;;;;0.20;0.20;;;;;;;20.99;44.23;102312.69;5103212;28;20050;-41
2023/05/18 03:03:24;;;;;;;0.20;0.20;;;;;;;20.99;43.97;102323.78;5096932;28;20067;-43
2023/05/18 03:05:51;;;;;;;0.20;0.20;;;;;;;20.96;44.23;102324.28;5097170;28;20051;-41
2023/05/18 03:08:19;;;;;;;0.20;0.20;;;;;;;20.99;44.16;102318.22;5097085;28;20105;-40
2023/05/18 03:10:44;;;;;;;0.20;0.20;;;;;;;20.99;43.93;102324.59;5078430;28;20461;-40
2023/05/18 03:13:10;;;;;;;0.20;0.20;;;;;;;21.00;43.86;102323.50;5096442;28;20052;-42
2023/05/18 03:15:36;;;;;;;0.20;0.20;;;;;;;21.00;43.90;102328.22;5097216;28;20047;-42
2023/05/18 03:18:02;;;;;;;0.20;0.20;;;;;;;20.99;44.23;102323.78;5096831;28;20495;-41
2023/05/18 03:20:30;;;;;;;0.20;0.20;;;;;;;20.99;44.18;102321.84;5095934;28;20044;-41
2023/05/18 03:22:56;;;;;;;0.10;0.10;;;;;;;20.99;44.01;102318.22;5096704;28;20048;-40
2023/05/18 03:25:24;;;;;;;0.20;0.20;;;;;;;21.01;43.91;102316.84;5078196;28;20051;-40
2023/05/18 03:27:51;;;;;;;0.10;0.10;;;;;;;21.00;43.96;102309.66;5078879;28;20070;-41
2023/05/18 03:30:18;;;;;;;0.20;0.20;;;;;;;20.99;43.90;102318.22;5078124;28;20917;-42
2023/05/18 03:32:46;;;;;;;0.20;0.20;;;;;;;21.00;43.98;102314.38;5111488;27;20337;-40
2023/05/18 03:35:12;;;;;;;0.20;0.20;;;;;;;21.00;44.01;102315.19;5137471;27;20449;-41
2023/05/18 03:37:38;;;;;;;0.20;0.20;;;;;;;21.00;44.04;102319.91;5137272;27;20074;-41
2023/05/18 03:40:09;;;;;;;0.20;0.20;;;;;;;20.99;43.98;102312.69;5124070;27;20048;-40
2023/05/18 03:42:35;;;;;;;0.20;0.20;;;;;;;21.00;43.79;102314.38;5078083;28;20055;-41
2023/05/18 03:45:01;;;;;;;0.20;0.20;;;;;;;21.00;43.92;102314.38;5095605;28;20403;-40
2023/05/18 03:47:28;;;;;;;0.20;0.20;;;;;;;21.00;43.83;102320.72;5096967;28;20080;-42
2023/05/18 03:49:54;;;;;;;0.20;0.20;;;;;;;21.01;43.86;102324.34;5096606;28;20069;-41
2023/05/18 03:52:21;;;;;;;0.20;0.20;;;;;;;21.01;43.92;102318.78;5096710;28;20168;-39
2023/05/18 03:54:48;;;;;;;0.20;0.20;;;;;;;21.03;44.02;102319.38;5114079;28;20237;-41
2023/05/18 03:57:15;;;;;;;0.20;0.20;;;;;;;21.00;43.93;102317.13;5082016;28;20074;-40
2023/05/18 03:59:41;;;;;;;0.20;0.20;;;;;;;21.00;43.85;102311.59;5117086;28;20055;-40
2023/05/18 04:02:07;;;;;;;0.13;0.13;;;;;;;21.00;44.00;102314.38;5117096;28;20372;-41
2023/05/18 04:04:33;;;;;;;0.20;0.20;;;;;;;21.01;43.92;102316.84;5116876;28;20690;-44
2023/05/18 04:07:01;;;;;;;0.10;0.10;;;;;;;21.03;43.78;102314.69;5116706;28;20733;-40
2023/05/18 04:09:28;;;;;;;0.20;0.20;;;;;;;21.04;43.73;102326.59;5116558;28;20089;-40
2023/05/18 04:11:54;;;;;;;0.20;0.20;;;;;;;21.02;43.96;102320.47;5098542;28;20483;-41
2023/05/18 04:14:19;;;;;;;0.20;0.20;;;;;;;21.01;43.92;102316.84;5098138;28;20043;-40
2023/05/18 04:16:46;;;;;;;0.20;0.20;;;;;;;21.02;43.80;102323.22;5116466;28;20058;-41
2023/05/18 04:19:12;;;;;;;0.20;0.20;;;;;;;21.02;43.79;102321.28;5117109;28;20051;-40
2023/05/18 04:21:42;;;;;;;0.20;0.20;;;;;;;21.03;43.91;102317.47;5097986;28;20133;-41
2023/05/18 04:24:08;;;;;;;0.20;0.20;;;;;;;21.03;43.79;102324.94;5116304;28;20043;-40
2023/05/18 04:26:35;;;;;;;0.30;0.30;;;;;;;21.00;44.06;102329.03;5097682;28;20135;-41
2023/05/18 04:29:02;;;;;;;0.15;0.15;;;;;;;21.01;43.94;102333.47;5098261;28;20043;-40
2023/05/18 04:31:28;;;;;;;0.20;0.20;;;;;;;21.01;43.88;102330.72;5107049;27;20105;-41
2023/05/18 04:33:56;;;;;;;0.20;0.20;;;;;;;21.03;43.95;102327.69;5129406;27;20533;-40
2023/05/18 04:36:24;;;;;;;0.10;0.10;;;;;;;21.02;43.85;102339.84;5118165;27;20049;-43
2023/05/18 04:38:51;;;;;;;;;;;;;;;21.02;43.95;102342.63;5137370;27;20487;-41
2023/05/18 04:41:19;;;;;;;0.20;0.20;;;;;;;21.01;43.94;102341.78;5084449;28;19955;-42
2023/05/18 04:43:46;;;;;;;0.10;0.10;;;;;;;21.00;43.91;102350.38;5077217;28;20047;-40
2023/05/18 04:46:12;;;;;;;0.20;0.20;;;;;;;21.00;44.00;102344.81;5077403;28;20074;-41
2023/05/18 04:48:38;;;;;;;0.20;0.20;;;;;;;21.02;43.87;102350.94;5095671;28;20042;-41
2023/05/18 04:51:05;;;;;;;0.20;0.20;;;;;;;21.03;43.89;102347.09;5095466;28;20170;-40
2023/05/18 04:53:32;;;;;;;0.10;0.10;;;;;;;21.03;43.76;102353.47;5077454;28;20051;-42
2023/05/18 04:55:59;;;;;;;0.20;0.20;;;;;;;21.02;43.79;102349.00;5093005;27;20424;-40
2023/05/18 04:58:26;;;;;;;0.20;0.20;;;;;;;21.02;43.82;102345.38;5097081;28;20403;-41
2023/05/18 05:00:54;;;;;;;0.20;0.20;;;;;;;21.02;43.81;102356.47;5097405;28;20524;-40
2023/05/18 05:03:20;;;;;;;0.20;0.20;;;;;;;21.03;43.62;102356.22;5097141;28;20236;-40
2023/05/18 05:05:46;;;;;;;0.20;0.20;;;;;;;21.02;43.94;102357.31;5115357;28;20047;-42
2023/05/18 05:08:11;;;;;;;0.20;0.20;;;;;;;21.01;43.80;102352.88;5096520;28;20331;-41
2023/05/18 05:10:37;;;;;;;0.20;0.20;;;;;;;21.01;43.87;102347.31;5115441;28;20047;-40
2023/05/18 05:13:03;;;;;;;0.20;0.20;;;;;;;21.01;43.87;102346.50;5115715;28;20047;-41
2023/05/18 05:15:29;;;;;;;0.20;0.20;;;;;;;21.01;43.74;102354.81;5115033;28;20301;-40
2023/05/18 05:17:56;;;;;;;0.20;0.20;;;;;;;21.02;43.75;102353.69;5115468;28;20081;-39
2023/05/18 05:20:22;;;;;;;0.20;0.20;;;;;;;21.02;43.91;102345.38;5115302;28;20100;-39
2023/05/18 05:22:48;;;;;;;0.20;0.20;;;;;;;21.03;43.85;102352.63;5115681;28;20130;-39
2023/05/18 05:25:14;;;;;;;0.10;0.10;;;;;;;21.03;43.78;102355.41;5115763;28;20484;-40
2023/05/18 05:27:40;;;;;;;0.20;0.20;;;;;;;21.03;43.75;102349.84;5115354;28;20395;-40
2023/05/18 05:30:06;;;;;;;0.20;0.20;;;;;;;21.03;43.93;102347.09;5115070;28;20095;-43
2023/05/18 05:32:32;;;;;;;0.20;0.20;;;;;;;21.03;43.66;102347.91;5116028;27;20054;-40
2023/05/18 05:34:57;;;;;;;0.20;0.20;;;;;;;21.02;43.83;102349.00;5135955;27;20050;-43
2023/05/18 05:37:23;;;;;;;0.20;0.20;;;;;;;21.03;43.86;102345.16;5135713;27;20240;-41
2023/05/18 05:39:49;;;;;;;0.10;0.10;;;;;;;21.03;43.80;102352.63;5126612;27;20411;-41
2023/05/18 05:42:14;;;;;;;0.20;0.20;;;;;;;21.04;43.87;102352.34;5095054;28;20063;-43
2023/05/18 05:44:40;;;;;;;0.20;0.20;;;;;;;21.03;43.93;102344.31;5095034;28;20672;-40
2023/05/18 05:47:06;;;;;;;0.20;0.20;;;;;;;21.05;43.72;102354.03;5094871;28;20051;-40
2023/05/18 05:49:33;;;;;;;0.20;0.20;;;;;;;21.02;43.80;102359.25;5094924;28;20287;-43
2023/05/18 05:51:59;;;;;;;0.20;0.20;;;;;;;21.02;43.86;102362.84;5076933;28;20052;-42
2023/05/18 05:54:25;;;;;;;0.10;0.10;;;;;;;21.02;43.86;102357.31;5095387;28;20055;-41
2023/05/18 05:56:50;;;;;;;0.20;0.20;;;;;;;21.03;43.73;102356.22;5099993;28;20047;-43
2023/05/18 05:59:16;;;;;;;0.20;0.20;;;;;;;21.02;43.81;102360.06;5115268;28;20082;-40
2023/05/18 06:01:42;;;;;;;0.20;0.20;;;;;;;21.04;43.78;102362.59;5094480;28;20040;-41
2023/05/18 06:04:09;;;;;;;0.20;0.20;;;;;;;21.03;43.75;102360.94;5094917;28;20044;-42
2023/05/18 06:06:37;;;;;;;0.10;0.10;;;;;;;21.05;43.70;102354.03;5094399;28;20062;-39
2023/05/18 06:09:03;;;;;;;0.20;0.20;;;;;;;21.03;43.73;102363.72;5097785;28;20052;-41
2023/05/18 06:11:29;;;;;;;0.20;0.20;;;;;;;21.07;43.52;102355.69;5097910;28;20047;-39
2023/05/18 06:13:55;;;;;;;0.10;0.10;;;;;;;21.04;43.79;102354.28;5098516;28;20058;-41
2023/05/18 06:16:20;;;;;;;0.20;0.20;;;;;;;21.02;43.74;102360.06;5098190;28;20048;-41
2023/05/18 06:18:47;;;;;;;0.20;0.20;;;;;;;21.02;43.66;102362.84;5097742;28;20073;-40
2023/05/18 06:21:14;;;;;;;0.20;0.20;;;;;;;21.02;43.85;102362.00;5097901;28;20120;-42
2023/05/18 06:23:40;;;;;;;0.20;0.20;;;;;;;21.04;43.63;102365.38;5080000;28;20546;-41
2023/05/18 06:26:07;;;;;;;0.20;0.20;;;;;;;21.04;43.75;102363.44;5098526;28;20426;-40
2023/05/18 06:28:33;;;;;;;0.20;0.20;;;;;;;21.04;43.78;102363.44;5098068;28;20048;-41
2023/05/18 06:30:58;;;;;;;0.20;0.20;;;;;;;21.03;43.66;102364.53;5117218;27;20045;-42
2023/05/18 06:33:25;;;;;;;0.20;0.20;;;;;;;21.02;43.83;102362.84;5138805;27;20050;-40
2023/05/18 06:35:50;;;;;;;0.20;0.20;;;;;;;21.05;43.60;102367.88;5139352;27;20342;-44
2023/05/18 06:38:16;;;;;;;0.20;0.20;;;;;;;21.04;43.78;102366.22;5138418;27;20412;-40
2023/05/18 06:40:42;;;;;;;0.20;0.20;;;;;;;21.04;43.83;102371.75;5114434;27;20118;-40
2023/05/18 06:43:08;;;;;;;0.20;0.20;;;;;;;21.04;43.61;102370.91;5097588;28;20054;-41
2023/05/18 06:45:33;;;;;;;0.20;0.20;;;;;;;21.05;43.80;102369.81;5098161;28;20526;-42
2023/05/18 06:48:03;;;;;;;0.20;0.20;;;;;;;21.04;43.88;102365.38;5097687;28;20407;-42
2023/05/18 06:50:28;;;;;;;0.20;0.20;;;;;;;21.05;43.80;102372.56;5097206;28;20064;-39
2023/05/18 06:52:54;;;;;;;0.20;0.20;;;;;;;21.06;43.61;102374.25;5096956;28;20495;-39
2023/05/18 06:55:20;;;;;;;0.20;0.20;;;;;;;21.05;43.69;102373.41;5097847;28;20502;-41
2023/05/18 06:57:46;;;;;;;0.20;0.20;;;;;;;21.05;43.68;102364.28;5097504;28;20070;-41
2023/05/18 07:00:12;;;;;;;0.20;0.20;;;;;;;21.05;43.68;102378.94;5107529;28;20426;-41
2023/05/18 07:02:38;;;;;;;0.20;0.20;;;;;;;21.06;43.78;102374.25;5097126;28;20057;-41
2023/05/18 07:05:07;;;;;;;0.20;0.20;;;;;;;21.04;43.71;102382.81;5097522;28;20058;-40
2023/05/18 07:07:35;;;;;;;0.20;0.20;;;;;;;21.05;43.63;102378.94;5079422;28;20055;-41
2023/05/18 07:10:02;;;;;;;0.10;0.10;;;;;;;21.09;43.84;102375.69;5062051;28;20044;-40
2023/05/18 07:12:28;;;;;;;0.10;0.10;;;;;;;21.08;43.81;102374.84;5062501;28;20048;-41
2023/05/18 07:14:53;;;;;;;0.20;0.20;;;;;;;21.05;43.79;102378.94;5096807;28;20043;-44
2023/05/18 07:17:19;;;;;;;0.20;0.20;;;;;;;21.06;43.68;102377.00;5097328;28;20508;-42
2023/05/18 07:19:45;;;;;;;0.10;0.10;;;;;;;21.07;43.74;102375.94;5095898;28;20062;-40
2023/05/18 07:22:10;;;;;;;0.20;0.20;;;;;;;21.04;43.59;102376.44;5096047;28;20415;-41
2023/05/18 07:24:36;;;;;;;0.20;0.20;;;;;;;21.05;43.59;102378.94;5096555;28;20047;-41
2023/05/18 07:27:02;;;;;;;0.20;0.20;;;;;;;21.07;43.67;102372.31;5097243;28;20044;-42
2023/05/18 07:29:29;;;;;;;0.20;0.20;;;;;;;21.04;43.66;102376.44;5097219;27;20043;-41
2023/05/18 07:31:54;;;;;;;0.20;0.20;;;;;;;21.05;43.66;102378.13;5096688;28;20056;-41
2023/05/18 07:34:20;;;;;;;0.20;0.20;;;;;;;21.09;43.83;102383.97;5096567;28;20057;-40
2023/05/18 07:36:46;;;;;;;0.20;0.20;;;;;;;21.06;43.78;102379.78;5096551;28;20104;-41
2023/05/18 07:39:17;;;;;;;0.20;0.20;;;;;;;21.05;43.55;102381.72;5096975;28;20048;-42
2023/05/18 07:41:46;;;;;;;0.20;0.20;;;;;;;21.05;43.74;102381.72;5116423;28;20051;-42
2023/05/18 07:44:12;;;;;;;0.20;0.20;;;;;;;21.07;43.87;102373.19;5098490;28;20047;-41
2023/05/18 07:46:38;;;;;;;0.20;0.20;;;;;;;21.06;43.60;102371.47;5098755;28;20486;-42
2023/05/18 07:49:04;;;;;;;0.20;0.20;;;;;;;21.08;43.77;102368.47;5117451;28;20043;-40
2023/05/18 07:51:30;;;;;;;0.20;0.20;;;;;;;21.08;43.61;102372.06;5098259;28;20186;-42
2023/05/18 07:53:56;;;;;;;0.20;0.20;;;;;;;21.05;43.63;102362.34;5098561;28;20078;-42
2023/05/18 07:56:23;;;;;;;0.20;0.20;;;;;;;21.07;43.69;102364.88;5116624;28;20071;-42
2023/05/18 07:58:48;;;;;;;0.20;0.20;;;;;;;21.10;43.65;102369.88;5117001;28;20506;-41
2023/05/18 08:01:14;;;;;;;0.20;0.20;;;;;;;21.06;43.54;102365.94;5102393;28;20051;-40
2023/05/18 08:03:40;;;;;;;0.20;0.20;;;;;;;21.10;43.51;102366.25;5116135;28;20294;-42
2023/05/18 08:06:06;;;;;;;0.20;0.20;;;;;;;21.06;43.63;102379.78;5116074;28;20503;-41
2023/05/18 08:08:31;;;;;;;0.20;0.20;;;;;;;21.07;43.49;102358.47;5116857;28;20051;-42
2023/05/18 08:10:58;;;;;;;0.20;0.20;;;;;;;21.08;43.80;102363.75;5116118;28;20058;-40
2023/05/18 08:13:23;;;;;;;0.20;0.20;;;;;;;21.09;43.64;102359.88;5097466;28;20465;-42
2023/05/18 08:15:49;;;;;;;0.20;0.20;;;;;;;21.12;43.42;102356.59;5116343;28;20547;-43
2023/05/18 08:18:34;;;;;;;0.20;0.20;;;;;;;21.12;43.36;102345.53;5101180;28;20055;-40
2023/05/18 08:21:02;;;;;;;0.20;0.20;;;;;;;21.10;43.72;102352.41;5116105;28;20209;-40
2023/05/18 08:23:28;;;;;;;0.20;0.20;;;;;;;21.10;43.50;102353.25;5115865;28;20043;-41
2023/05/18 08:25:55;;;;;;;0.20;0.20;;;;;;;21.07;43.67;102358.47;5116007;28;20047;-42
2023/05/18 08:28:22;;;;;;;0.10;0.10;;;;;;;21.07;43.68;102361.22;5115613;28;20047;-42
2023/05/18 08:30:47;;;;;;;0.20;0.20;;;;;;;21.08;43.80;102358.22;5102643;27;20050;-40
2023/05/18 08:33:13;;;;;;;0.20;0.20;;;;;;;21.11;43.64;102362.38;5095477;28;20044;-42
2023/05/18 08:35:39;;;;;;;0.20;0.20;;;;;;;21.10;43.59;102357.94;5095337;28;20561;-40
2023/05/18 08:38:04;;;;;;;0.20;0.20;;;;;;;21.10;43.58;102357.94;5095333;28;20248;-42
2023/05/18 08:40:36;;;;;;;0.20;0.20;;;;;;;21.07;43.53;102348.25;5095368;28;20054;-40
2023/05/18 08:43:08;;;;;;;0.20;0.20;;;;;;;21.10;43.59;102342.16;5077121;28;20460;-41
2023/05/18 08:45:41;;;;;;;0.20;0.20;;;;;;;21.10;43.52;102344.94;5077413;28;20439;-41
2023/05/18 08:48:07;;;;;;;0.20;0.20;;;;;;;21.11;43.56;102349.38;5077330;28;20039;-42
2023/05/18 08:50:33;;;;;;;0.20;0.20;;;;;;;21.10;43.71;102344.09;5095314;28;20380;-43
2023/05/18 08:53:01;;;;;;;0.20;0.20;;;;;;;21.13;43.52;102346.38;5095376;28;20051;-41
2023/05/18 08:55:28;;;;;;;0.20;0.20;;;;;;;21.11;43.73;102343.00;5095252;28;20101;-41
2023/05/18 08:57:55;;;;;;;0.20;0.20;;;;;;;21.11;43.54;102346.59;5095293;28;20040;-40
2023/05/18 09:00:22;;;;;;;0.20;0.20;;;;;;;21.12;43.47;102344.69;5095294;28;20445;-41
2023/05/18 09:02:49;;;;;;;0.20;0.20;;;;;;;21.11;43.71;102345.78;5105544;28;20054;-41
2023/05/18 09:05:16;;;;;;;0.20;0.20;;;;;;;21.11;43.53;102349.38;5115856;27;20140;-40
2023/05/18 09:07:42;;;;;;;0.20;0.20;;;;;;;21.09;43.78;102342.44;5113973;28;20434;-42
2023/05/18 09:10:10;;;;;;;0.20;0.20;;;;;;;21.11;43.70;102341.06;5108588;27;20044;-40
2023/05/18 09:12:37;;;;;;;0.10;0.10;;;;;;;21.11;43.58;102349.38;5095569;28;20075;-40
2023/05/18 09:15:02;;;;;;;0.20;0.20;;;;;;;21.12;43.45;102344.69;5095280;28;20078;-42
2023/05/18 09:17:28;;;;;;;0.20;0.20;;;;;;;21.10;43.84;102342.16;5094884;28;20067;-40
2023/05/18 09:19:54;;;;;;;0.20;0.20;;;;;;;21.11;43.72;102343.00;5094307;28;20495;-42
2023/05/18 09:22:20;;;;;;;0.10;0.10;;;;;;;21.12;43.53;102333.63;5076698;28;20745;-41
2023/05/18 09:24:47;;;;;;;0.17;0.17;;;;;;;21.10;43.50;102341.34;5094577;28;20630;-40
2023/05/18 09:27:13;;;;;;;0.20;0.20;;;;;;;21.12;43.45;102339.16;5076532;28;20060;-42
2023/05/18 09:29:55;;;;;;;0.20;0.20;;;;;;;21.10;43.49;102342.16;5113519;27;20343;-42
2023/05/18 09:32:22;;;;;;;0.20;0.20;;;;;;;21.13;43.47;102332.50;5076753;28;20139;-40
2023/05/18 09:34:48;;;;;;;0.20;0.20;;;;;;;21.11;43.59;102332.75;5076262;28;20078;-41
2023/05/18 09:37:17;;;;;;;0.10;0.10;;;;;;;21.12;43.39;102333.63;5059317;28;20487;-39
2023/05/18 09:39:44;;;;;;;0.20;0.20;;;;;;;21.11;43.55;102331.91;5075868;28;20412;-40
2023/05/18 09:42:11;;;;;;;0.20;0.20;;;;;;;21.11;43.57;102340.22;5095005;28;20098;-41
2023/05/18 09:44:36;;;;;;;0.20;0.20;;;;;;;21.11;43.53;102341.06;5098438;28;20100;-40
2023/05/18 09:47:07;;;;;;;0.20;0.20;;;;;;;21.13;43.78;102341.66;5098017;28;20047;-41
2023/05/18 09:49:32;;;;;;;0.20;0.20;;;;;;;21.12;43.57;102337.22;5097825;28;20066;-41
2023/05/18 09:51:59;;;;;;;0.20;0.20;;;;;;;21.11;43.66;102332.75;5097680;28;20503;-39
2023/05/18 09:54:25;;;;;;;0.20;0.20;;;;;;;21.12;43.59;102337.22;5118770;28;20083;-43
2023/05/18 09:56:51;;;;;;;0.20;0.20;;;;;;;21.10;43.64;102344.94;5118441;28;20051;-41
2023/05/18 09:59:35;;;;;;;0.20;0.20;;;;;;;21.12;43.56;102330.84;5115907;28;20103;-40
2023/05/18 10:02:04;;;;;;;0.20;0.20;;;;;;;21.13;43.40;102338.06;5079609;28;20039;-41
2023/05/18 10:04:39;;;;;;;0.20;0.20;;;;;;;21.12;43.59;102328.91;5107323;28;20112;-40
2023/05/18 10:07:10;;;;;;;0.20;0.20;;;;;;;21.10;43.49;102328.31;5099110;28;20844;-40
2023/05/18 10:09:36;;;;;;;0.20;0.20;;;;;;;21.14;43.54;102331.41;5115812;27;20047;-40
2023/05/18 10:12:01;;;;;;;0.20;0.20;;;;;;;21.13;43.31;102330.56;5098383;28;20479;-41
2023/05/18 10:14:35;;;;;;;0.20;0.20;;;;;;;21.11;43.60;102326.38;5098479;28;20792;-42
2023/05/18 10:17:03;;;;;;;0.20;0.20;;;;;;;21.10;43.69;102321.94;5080269;28;20055;-41
2023/05/18 10:19:42;;;;;;;0.20;0.20;;;;;;;21.11;43.47;102312.53;5097909;28;20051;-40
2023/05/18 10:22:08;;;;;;;0.20;0.20;;;;;;;21.12;43.52;102315.06;5063110;28;20317;-41
2023/05/18 10:24:38;;;;;;;0.20;0.20;;;;;;;21.13;43.57;102313.13;5079857;28;20087;-43
2023/05/18 10:27:07;;;;;;;0.20;0.20;;;;;;;21.13;43.50;102307.56;5098168;28;20445;-40
2023/05/18 10:29:35;;;;;;;0.20;0.20;;;;;;;21.14;43.47;102307.31;5117862;27;20402;-41
2023/05/18 10:32:02;;;;;;;0.10;0.10;;;;;;;21.12;43.57;102306.75;5079683;28;20051;-40
2023/05/18 10:34:32;;;;;;;0.20;0.20;;;;;;;21.14;43.66;102303.69;5097161;28;20295;-40
2023/05/18 10:37:00;;;;;;;0.20;0.20;;;;;;;21.12;43.52;102298.44;5097354;28;20075;-40
2023/05/18 10:39:26;;;;;;;0.20;0.20;;;;;;;21.10;43.51;102292.31;5079086;28;20128;-43
2023/05/18 10:41:54;;;;;;;0.20;0.20;;;;;;;21.14;43.32;102287.91;5097695;28;20060;-43
2023/05/18 10:44:23;;;;;;;0.20;0.20;;;;;;;21.14;43.22;102290.69;5079894;28;20523;-41
2023/05/18 10:46:49;;;;;;;;;;;;;;;21.13;43.49;102297.34;5079815;28;20065;-43
2023/05/18 10:49:16;;;;;;;0.20;0.20;;;;;;;21.11;43.71;102293.13;5079202;28;20003;-42
2023/05/18 10:51:43;;;;;;;0.10;0.10;;;;;;;21.12;43.38;102300.38;5099371;28;20059;-40
2023/05/18 10:54:12;;;;;;;0.20;0.20;;;;;;;21.12;43.47;102283.75;5116537;27;20043;-41
2023/05/18 10:56:41;;;;;;;0.20;0.20;;;;;;;21.12;43.46;102287.34;5099547;28;20071;-40
2023/05/18 10:59:07;;;;;;;0.20;0.20;;;;;;;21.12;43.55;102290.13;5117845;28;20046;-40
2023/05/18 11:01:33;;;;;;;0.20;0.20;;;;;;;21.11;43.55;102277.34;5117517;28;20043;-42
2023/05/18 11:04:03;;;;;;;0.20;0.20;;;;;;;21.11;43.68;102285.66;5117922;28;20166;-42
2023/05/18 11:06:28;;;;;;;0.20;0.20;;;;;;;21.14;43.68;102279.59;5106256;28;20081;-41
2023/05/18 11:08:54;;;;;;;0.20;0.20;;;;;;;21.13;43.37;102286.25;5118138;28;20441;-40
2023/05/18 11:11:23;;;;;;;0.20;0.20;;;;;;;21.09;43.72;102278.72;5100019;27;20043;-40
2023/05/18 11:13:50;;;;;;;0.20;0.20;;;;;;;21.12;43.53;102290.13;5096777;28;20043;-40
2023/05/18 11:16:17;;;;;;;0.20;0.20;;;;;;;21.13;43.65;102280.72;5079317;28;20051;-41
2023/05/18 11:18:45;;;;;;;0.20;0.20;;;;;;;21.12;43.33;102272.66;5097241;28;20234;-42
2023/05/18 11:21:19;;;;;;;0.20;0.20;;;;;;;21.12;43.41;102265.19;5097109;28;20051;-41
2023/05/18 11:24:15;;;;;;;0.20;0.20;;;;;;;21.12;43.52;102276.28;5078919;28;20051;-40
2023/05/18 11:26:43;;;;;;;0.20;0.20;;;;;;;21.13;43.41;102266.84;5083410;28;20480;-42
2023/05/18 11:29:39;;;;;;;0.20;0.20;;;;;;;21.14;43.44;102268.53;5090916;28;20079;-42